createdAt,value
2019-03-21T00:01:06.831Z,53.76
2019-03-21T00:03:36.279Z,53.99
2019-03-21T00:06:09.111Z,53.48
2019-03-21T00:08:38.544Z,53.35
2019-03-21T00:11:31.570Z,53.81
2019-03-21T00:14:08.644Z,54.40
2019-03-21T00:16:38.071Z,54.44
2019-03-21T00:19:07.585Z,54.49
2019-03-21T00:21:37.018Z,54.47
2019-03-21T00:24:06.473Z,54.33
2019-03-21T00:26:35.904Z,54.75
2019-03-21T00:29:05.338Z,56.00
2019-03-21T00:31:34.768Z,56.04
2019-03-21T00:34:04.233Z,55.92
2019-03-21T00:36:33.683Z,55.75
2019-03-21T00:39:03.075Z,55.75
2019-03-21T00:41:32.518Z,55.81
2019-03-21T00:44:01.946Z,55.96
2019-03-21T00:46:31.372Z,56.12
2019-03-21T00:49:00.803Z,56.65
2019-03-21T00:51:30.229Z,56.26
2019-03-21T00:53:59.668Z,56.21
2019-03-21T00:56:29.099Z,56.37
2019-03-21T00:58:58.524Z,56.61
2019-03-21T01:01:27.956Z,56.77
2019-03-21T01:03:57.387Z,56.59
2019-03-21T01:06:26.816Z,56.73
2019-03-21T01:08:56.533Z,56.64
2019-03-21T01:11:25.952Z,56.83
2019-03-21T01:13:55.381Z,57.38
2019-03-21T01:16:24.819Z,57.17
2019-03-21T01:18:54.344Z,57.74
2019-03-21T01:21:23.801Z,57.67
2019-03-21T01:23:53.240Z,57.58
2019-03-21T01:26:22.659Z,57.40
2019-03-21T01:28:52.095Z,57.38
2019-03-21T01:31:21.526Z,57.90
2019-03-21T01:33:50.971Z,57.99
2019-03-21T01:36:23.307Z,58.30
2019-03-21T01:38:52.749Z,58.62
2019-03-21T01:41:22.185Z,58.94
2019-03-21T01:43:51.690Z,58.82
2019-03-21T01:46:26.654Z,58.53
2019-03-21T01:48:56.263Z,58.29
2019-03-21T01:51:25.703Z,57.72
2019-03-21T01:53:56.183Z,57.86
2019-03-21T01:56:27.821Z,57.54
2019-03-21T01:58:57.263Z,57.71
2019-03-21T02:01:26.705Z,57.40
2019-03-21T02:03:56.238Z,57.52
2019-03-21T02:06:25.672Z,57.61
2019-03-21T02:08:55.443Z,57.60
2019-03-21T02:11:24.871Z,58.14
2019-03-21T02:13:54.317Z,58.05
2019-03-21T02:16:23.744Z,57.76
2019-03-21T02:18:53.167Z,57.78
2019-03-21T02:21:22.601Z,58.14
2019-03-21T02:23:52.031Z,58.13
2019-03-21T02:26:21.447Z,58.23
2019-03-21T02:28:50.868Z,58.36
2019-03-21T02:31:20.304Z,58.73
2019-03-21T02:33:49.740Z,58.46
2019-03-21T02:36:19.157Z,58.41
2019-03-21T02:38:48.587Z,58.59
2019-03-21T02:41:18.375Z,58.98
2019-03-21T02:43:47.831Z,58.89
2019-03-21T02:46:17.275Z,59.50
2019-03-21T02:48:46.690Z,59.37
2019-03-21T02:51:16.140Z,59.79
2019-03-21T02:53:45.541Z,59.75
2019-03-21T02:56:22.764Z,60.08
2019-03-21T02:58:52.188Z,60.06
2019-03-21T03:01:21.688Z,60.26
2019-03-21T03:03:51.298Z,60.32
2019-03-21T03:06:21.003Z,60.87
2019-03-21T03:08:50.416Z,60.75
2019-03-21T03:11:23.055Z,61.15
2019-03-21T03:13:52.721Z,61.25
2019-03-21T03:16:24.099Z,60.95
2019-03-21T03:18:53.514Z,61.33
2019-03-21T03:21:22.947Z,61.71
2019-03-21T03:23:52.374Z,61.77
2019-03-21T03:26:21.807Z,61.51
2019-03-21T03:28:51.242Z,61.66
2019-03-21T03:31:20.756Z,61.54
2019-03-21T03:33:50.169Z,61.53
2019-03-21T03:36:19.617Z,61.52
2019-03-21T03:38:49.020Z,61.77
2019-03-21T03:41:21.374Z,61.78
2019-03-21T03:43:50.787Z,61.92
2019-03-21T03:46:20.238Z,61.91
2019-03-21T03:48:49.658Z,61.58
2019-03-21T03:51:19.087Z,61.97
2019-03-21T03:53:48.512Z,61.88
2019-03-21T03:56:18.043Z,61.93
2019-03-21T03:59:00.953Z,61.95
2019-03-21T04:01:30.400Z,61.94
2019-03-21T04:03:59.961Z,62.05
2019-03-21T04:06:35.319Z,62.27
2019-03-21T04:09:24.075Z,62.07
2019-03-21T04:12:12.907Z,62.36
2019-03-21T04:15:01.673Z,62.27
2019-03-21T04:17:50.515Z,62.24
2019-03-21T04:21:00.205Z,62.19
2019-03-21T04:23:49.011Z,62.13
2019-03-21T04:26:37.753Z,62.52
2019-03-21T04:29:26.532Z,62.61
2019-03-21T04:32:15.308Z,62.36
2019-03-21T04:35:04.519Z,62.34
2019-03-21T04:37:53.296Z,62.50
2019-03-21T04:40:42.080Z,62.68
2019-03-21T04:43:30.846Z,62.66
2019-03-21T04:46:19.622Z,63.12
2019-03-21T04:49:08.405Z,63.03
2019-03-21T04:51:57.206Z,62.24
2019-03-21T04:54:45.983Z,62.13
2019-03-21T04:57:34.784Z,61.93
2019-03-21T05:00:44.421Z,62.08
2019-03-21T05:03:29.567Z,61.95
2019-03-21T05:06:18.360Z,61.96
2019-03-21T05:09:28.040Z,61.55
2019-03-21T05:12:16.820Z,62.84
2019-03-21T05:15:26.494Z,62.57
2019-03-21T05:18:36.227Z,62.88
2019-03-21T05:21:25.275Z,62.89
2019-03-21T05:24:14.061Z,63.18
2019-03-21T05:27:02.843Z,63.50
2019-03-21T05:29:51.638Z,63.71
2019-03-21T05:32:40.378Z,63.77
2019-03-21T05:35:29.138Z,63.15
2019-03-21T05:38:38.823Z,63.08
2019-03-21T05:41:27.599Z,62.93
2019-03-21T05:44:37.287Z,63.52
2019-03-21T05:47:45.101Z,63.24
2019-03-21T05:50:33.865Z,63.46
2019-03-21T05:53:22.657Z,66.92
2019-03-21T05:56:11.419Z,64.37
2019-03-21T05:59:00.195Z,63.37
2019-03-21T06:01:29.639Z,63.87
2019-03-21T06:03:59.060Z,63.27
2019-03-21T06:07:08.764Z,62.46
2019-03-21T06:09:57.562Z,62.04
2019-03-21T06:12:46.598Z,61.79
2019-03-21T06:15:56.667Z,61.58
2019-03-21T06:19:06.346Z,61.57
2019-03-21T06:22:16.082Z,61.15
2019-03-21T06:25:43.578Z,60.49
2019-03-21T06:28:32.340Z,60.10
2019-03-21T06:31:21.109Z,60.14
2019-03-21T06:34:09.881Z,59.53
2019-03-21T06:37:17.769Z,58.93
2019-03-21T06:40:06.812Z,58.76
2019-03-21T06:42:55.590Z,58.94
2019-03-21T06:45:48.189Z,58.45
2019-03-21T06:48:34.849Z,58.67
2019-03-21T06:51:23.613Z,58.10
2019-03-21T06:54:12.381Z,57.53
2019-03-21T06:57:02.523Z,57.51
2019-03-21T06:59:44.125Z,56.96
2019-03-21T07:02:32.900Z,56.46
2019-03-21T07:05:21.674Z,55.29
2019-03-21T07:08:10.445Z,55.71
2019-03-21T07:10:59.236Z,54.99
2019-03-21T07:13:48.005Z,53.58
2019-03-21T07:16:36.792Z,53.25
2019-03-21T07:19:25.556Z,52.67
2019-03-21T07:22:33.353Z,50.48
2019-03-21T07:25:22.295Z,50.42
2019-03-21T07:28:11.037Z,48.27
2019-03-21T07:34:00.437Z,47.61
2019-03-21T07:36:49.215Z,45.46
2019-03-21T07:39:18.649Z,44.40
2019-03-21T07:42:07.412Z,45.27
2019-03-21T07:44:56.208Z,43.86
2019-03-21T07:47:44.987Z,41.91
2019-03-21T07:50:33.761Z,42.66
2019-03-21T07:53:22.526Z,42.60
2019-03-21T07:56:11.318Z,40.80
2019-03-21T07:59:00.090Z,42.29
2019-03-21T08:01:48.882Z,40.05
2019-03-21T08:04:37.707Z,39.85
2019-03-21T08:07:26.509Z,39.59
2019-03-21T08:10:15.499Z,38.22
2019-03-21T08:13:04.235Z,39.63
2019-03-21T08:15:53.065Z,38.84
2019-03-21T08:18:41.840Z,35.49
2019-03-21T08:21:30.607Z,35.82
2019-03-21T08:24:19.387Z,35.82
2019-03-21T08:26:48.819Z,34.79
2019-03-21T08:29:37.591Z,34.59
2019-03-21T08:32:19.294Z,33.35
2019-03-21T08:35:08.140Z,32.91
2019-03-21T08:37:56.929Z,33.33
2019-03-21T08:40:45.698Z,33.94
2019-03-21T08:43:34.469Z,33.14
2019-03-21T08:46:23.284Z,33.54
2019-03-21T08:49:12.050Z,34.56
2019-03-21T08:52:00.857Z,33.45
2019-03-21T08:54:49.634Z,33.26
2019-03-21T08:57:38.427Z,32.60
2019-03-21T09:00:34.060Z,30.52
2019-03-21T09:03:17.721Z,30.61
2019-03-21T09:06:06.514Z,30.51
2019-03-21T09:08:55.337Z,30.45
2019-03-21T09:11:44.128Z,29.87
2019-03-21T09:14:32.901Z,29.30
2019-03-21T09:17:14.878Z,29.62
2019-03-21T09:23:18.489Z,30.16
2019-03-21T09:26:07.395Z,28.97
2019-03-21T09:28:56.263Z,29.27
2019-03-21T09:31:45.012Z,28.28
2019-03-21T09:34:33.888Z,28.92
2019-03-21T09:40:16.823Z,26.56
2019-03-21T09:43:05.605Z,27.45
2019-03-21T09:45:54.377Z,27.37
2019-03-21T09:48:43.173Z,28.00
2019-03-21T09:51:31.946Z,26.83
2019-03-21T09:54:20.724Z,27.38
2019-03-21T09:57:09.555Z,28.61
2019-03-21T09:59:58.329Z,27.80
2019-03-21T10:02:47.112Z,26.78
2019-03-21T10:05:35.948Z,27.71
2019-03-21T10:08:24.788Z,27.55
2019-03-21T10:11:13.572Z,28.18
2019-03-21T10:14:02.365Z,26.98
2019-03-21T10:16:51.145Z,26.66
2019-03-21T10:19:39.921Z,28.61
2019-03-21T10:22:28.726Z,26.87
2019-03-21T10:25:17.528Z,26.10
2019-03-21T10:28:06.349Z,27.24
2019-03-21T10:30:57.194Z,25.56
2019-03-21T10:33:45.658Z,26.77
2019-03-21T10:36:34.382Z,26.26
2019-03-21T10:39:23.183Z,26.35
2019-03-21T10:42:11.964Z,25.49
2019-03-21T10:45:00.741Z,26.15
2019-03-21T10:47:49.527Z,26.58
2019-03-21T10:50:59.229Z,25.86
2019-03-21T10:53:48.053Z,25.61
2019-03-21T10:56:36.828Z,25.95
2019-03-21T10:59:25.609Z,25.04
2019-03-21T11:02:14.402Z,25.42
2019-03-21T11:05:03.275Z,26.29
2019-03-21T11:07:52.043Z,25.83
2019-03-21T11:10:40.824Z,25.94
2019-03-21T11:13:29.617Z,25.89
2019-03-21T11:16:18.389Z,27.23
2019-03-21T11:19:00.223Z,25.82
2019-03-21T11:21:49.004Z,26.20
2019-03-21T11:24:37.777Z,25.65
2019-03-21T11:30:53.622Z,25.20
2019-03-21T11:33:42.405Z,24.40
2019-03-21T11:36:38.327Z,23.93
2019-03-21T11:39:40.694Z,24.33
2019-03-21T11:42:29.468Z,24.39
2019-03-21T11:45:18.244Z,24.49
2019-03-21T11:48:07.039Z,23.86
2019-03-21T11:50:55.816Z,24.94
2019-03-21T11:53:44.586Z,24.71
2019-03-21T11:56:33.373Z,25.33
2019-03-21T11:59:22.152Z,25.95
2019-03-21T12:02:10.935Z,25.95
2019-03-21T12:04:59.720Z,26.91
2019-03-21T12:07:48.525Z,27.03
2019-03-21T12:13:36.730Z,27.19
2019-03-21T12:16:18.239Z,27.33
2019-03-21T12:19:07.035Z,27.34
2019-03-21T12:21:55.807Z,27.24
2019-03-21T12:24:44.593Z,27.38
2019-03-21T12:27:33.394Z,28.40
2019-03-21T12:30:41.668Z,28.83
2019-03-21T12:33:30.439Z,28.52
2019-03-21T12:36:19.217Z,29.09
2019-03-21T12:39:29.228Z,28.62
2019-03-21T12:42:19.409Z,28.90
2019-03-21T12:45:29.105Z,27.82
2019-03-21T12:48:17.863Z,28.62
2019-03-21T12:51:06.648Z,29.20
2019-03-21T12:53:55.424Z,29.85
2019-03-21T12:59:38.467Z,27.76
2019-03-21T13:02:46.264Z,28.25
2019-03-21T13:05:35.089Z,28.44
2019-03-21T13:08:33.269Z,28.65
2019-03-21T13:11:14.327Z,28.32
2019-03-21T13:17:31.782Z,28.02
2019-03-21T13:20:20.573Z,26.98
2019-03-21T13:23:09.333Z,26.89
2019-03-21T13:25:58.120Z,26.97
2019-03-21T13:28:27.560Z,28.12
2019-03-21T13:31:16.352Z,27.00
2019-03-21T13:34:05.131Z,27.63
2019-03-21T13:36:53.914Z,28.37
2019-03-21T13:39:42.688Z,26.90
2019-03-21T13:42:22.483Z,27.17
2019-03-21T13:45:11.326Z,26.67
2019-03-21T13:48:00.106Z,27.06
2019-03-21T13:50:48.885Z,28.53
2019-03-21T13:53:37.660Z,28.12
2019-03-21T13:56:37.570Z,28.20
2019-03-21T13:59:16.972Z,27.52
2019-03-21T14:02:12.998Z,28.88
2019-03-21T14:05:01.769Z,28.12
2019-03-21T14:07:50.566Z,28.01
2019-03-21T14:10:39.362Z,27.02
2019-03-21T14:13:28.137Z,28.58
2019-03-21T14:16:16.931Z,28.32
2019-03-21T14:19:05.702Z,28.95
2019-03-21T14:21:54.485Z,28.69
2019-03-21T14:24:43.270Z,29.00
2019-03-21T14:27:12.717Z,27.87
2019-03-21T14:29:42.150Z,28.42
2019-03-21T14:32:11.584Z,28.50
2019-03-21T14:35:00.435Z,27.74
2019-03-21T14:37:29.864Z,28.29
2019-03-21T14:39:59.303Z,28.24
2019-03-21T14:42:48.124Z,28.13
2019-03-21T14:45:38.599Z,28.63
2019-03-21T14:48:27.378Z,28.14
2019-03-21T14:51:16.142Z,27.82
2019-03-21T14:54:04.919Z,28.72
2019-03-21T14:56:53.724Z,28.86
2019-03-21T15:02:50.294Z,28.81
2019-03-21T15:05:39.069Z,28.07
2019-03-21T15:08:27.876Z,28.70
2019-03-21T15:11:17.622Z,29.74
2019-03-21T15:14:07.152Z,28.72
2019-03-21T15:16:49.016Z,28.44
2019-03-21T15:19:39.301Z,28.86
2019-03-21T15:22:28.337Z,28.14
2019-03-21T15:25:17.122Z,28.82
2019-03-21T15:28:05.917Z,29.06
2019-03-21T15:30:54.728Z,30.07
2019-03-21T15:33:43.509Z,29.44
2019-03-21T15:36:32.287Z,29.83
2019-03-21T15:39:21.069Z,29.36
2019-03-21T15:42:09.859Z,29.67
2019-03-21T15:45:15.618Z,29.67
2019-03-21T15:47:49.347Z,30.07
2019-03-21T15:51:04.400Z,30.55
2019-03-21T15:53:53.475Z,30.85
2019-03-21T15:56:38.308Z,30.53
2019-03-21T15:59:20.018Z,30.45
2019-03-21T16:02:08.787Z,30.42
2019-03-21T16:04:57.558Z,30.42
2019-03-21T16:07:46.348Z,29.69
2019-03-21T16:10:35.186Z,30.54
2019-03-21T16:13:23.979Z,29.87
2019-03-21T16:16:12.969Z,29.63
2019-03-21T16:19:01.724Z,30.30
2019-03-21T16:21:31.167Z,29.95
2019-03-21T16:24:05.355Z,29.89
2019-03-21T16:26:51.097Z,30.26
2019-03-21T16:29:39.875Z,30.04
2019-03-21T16:32:10.350Z,31.19
2019-03-21T16:34:39.806Z,31.54
2019-03-21T16:37:11.892Z,31.57
2019-03-21T16:39:40.439Z,31.29
2019-03-21T16:42:09.875Z,32.12
2019-03-21T16:44:58.834Z,31.41
2019-03-21T16:47:47.594Z,30.79
2019-03-21T16:50:17.118Z,30.46
2019-03-21T16:53:06.232Z,30.95
2019-03-21T16:55:55.020Z,31.52
2019-03-21T16:58:24.557Z,32.12
2019-03-21T17:01:13.340Z,32.49
2019-03-21T17:04:02.138Z,32.96
2019-03-21T17:06:50.995Z,34.04
2019-03-21T17:09:39.847Z,34.32
2019-03-21T17:12:28.647Z,39.14
2019-03-21T17:15:17.536Z,40.71
2019-03-21T17:18:06.326Z,35.41
2019-03-21T17:20:48.556Z,35.21
2019-03-21T17:23:37.321Z,35.63
2019-03-21T17:26:26.093Z,36.08
2019-03-21T17:29:14.890Z,36.29
2019-03-21T17:32:03.671Z,36.60
2019-03-21T17:34:52.451Z,38.02
2019-03-21T17:37:41.309Z,38.63
2019-03-21T17:40:30.077Z,37.85
2019-03-21T17:43:18.846Z,39.04
2019-03-21T17:46:07.891Z,37.35
2019-03-21T17:48:56.715Z,38.67
2019-03-21T17:51:46.780Z,38.78
2019-03-21T17:54:41.396Z,38.13
2019-03-21T17:57:34.295Z,38.59
2019-03-21T17:59:57.634Z,38.32
2019-03-21T18:02:46.507Z,38.66
2019-03-21T18:05:35.312Z,38.98
2019-03-21T18:08:24.096Z,39.35
2019-03-21T18:11:12.966Z,38.87
2019-03-21T18:13:54.454Z,38.77
2019-03-21T18:16:43.233Z,38.93
2019-03-21T18:19:32.280Z,39.67
2019-03-21T18:22:35.590Z,39.62
2019-03-21T18:25:12.625Z,39.86
2019-03-21T18:28:01.500Z,39.79
2019-03-21T18:30:30.968Z,40.25
2019-03-21T18:33:19.805Z,39.86
2019-03-21T18:36:08.610Z,40.11
2019-03-21T18:38:59.814Z,40.79
2019-03-21T18:41:47.894Z,40.30
2019-03-21T18:44:36.686Z,40.86
2019-03-21T18:47:25.463Z,41.13
2019-03-21T18:50:33.611Z,40.77
2019-03-21T18:56:50.783Z,41.57
2019-03-21T18:59:39.555Z,41.09
2019-03-21T19:02:28.336Z,41.46
2019-03-21T19:05:17.204Z,41.54
2019-03-21T19:08:25.009Z,41.79
2019-03-21T19:11:13.827Z,42.13
2019-03-21T19:13:55.078Z,41.87
2019-03-21T19:16:43.864Z,42.20
2019-03-21T19:19:32.688Z,42.28
2019-03-21T19:22:21.464Z,41.91
2019-03-21T19:25:31.187Z,41.84
2019-03-21T19:28:19.978Z,42.18
2019-03-21T19:31:08.778Z,42.74
2019-03-21T19:33:57.545Z,42.50
2019-03-21T19:36:46.326Z,41.89
2019-03-21T19:39:35.097Z,42.16
2019-03-21T19:42:23.864Z,42.60
2019-03-21T19:45:33.557Z,42.14
2019-03-21T19:48:22.338Z,42.12
2019-03-21T19:51:11.160Z,41.63
2019-03-21T19:54:00.003Z,41.64
2019-03-21T19:56:41.811Z,41.61
2019-03-21T19:59:30.580Z,41.47
2019-03-21T20:02:19.369Z,42.26
2019-03-21T20:05:29.054Z,42.56
2019-03-21T20:08:17.860Z,42.53
2019-03-21T20:10:47.325Z,42.80
2019-03-21T20:13:36.073Z,43.32
2019-03-21T20:16:24.871Z,43.37
2019-03-21T20:19:13.631Z,43.55
2019-03-21T20:22:02.413Z,43.29
2019-03-21T20:24:51.188Z,43.59
2019-03-21T20:27:39.971Z,43.63
2019-03-21T20:30:28.740Z,43.82
2019-03-21T20:33:17.511Z,44.10
2019-03-21T20:36:06.303Z,44.18
2019-03-21T20:38:55.091Z,44.15
2019-03-21T20:41:43.870Z,44.09
2019-03-21T20:44:32.645Z,44.09
2019-03-21T20:47:21.416Z,44.29
2019-03-21T20:53:57.673Z,43.25
2019-03-21T20:56:39.155Z,42.17
2019-03-21T20:59:27.931Z,42.22
2019-03-21T21:02:16.722Z,42.42
2019-03-21T21:05:26.414Z,43.11
2019-03-21T21:08:15.255Z,42.69
2019-03-21T21:11:04.033Z,43.97
2019-03-21T21:13:52.822Z,43.89
2019-03-21T21:16:41.602Z,43.69
2019-03-21T21:19:30.417Z,43.05
2019-03-21T21:22:19.190Z,42.79
2019-03-21T21:28:30.091Z,42.29
2019-03-21T21:31:18.871Z,42.53
2019-03-21T21:34:07.657Z,42.55
2019-03-21T21:36:56.424Z,42.93
2019-03-21T21:39:45.200Z,44.00
2019-03-21T21:42:33.978Z,44.07
2019-03-21T21:45:22.754Z,43.62
2019-03-21T21:48:11.594Z,44.28
2019-03-21T21:51:00.372Z,45.67
2019-03-21T21:53:49.184Z,45.08
2019-03-21T21:56:37.962Z,46.09
2019-03-21T21:59:26.735Z,45.87
2019-03-21T22:02:15.514Z,45.94
2019-03-21T22:05:25.221Z,45.88
2019-03-21T22:08:13.981Z,46.55
2019-03-21T22:11:02.747Z,46.96
2019-03-21T22:13:51.517Z,47.94
2019-03-21T22:16:40.315Z,47.50
2019-03-21T22:19:29.097Z,47.71
2019-03-21T22:22:19.304Z,47.90
2019-03-21T22:28:37.435Z,47.86
2019-03-21T22:31:26.262Z,47.78
2019-03-21T22:37:08.969Z,47.41
2019-03-21T22:39:57.732Z,47.59
2019-03-21T22:42:47.414Z,47.46
2019-03-21T22:45:36.177Z,47.72
2019-03-21T22:48:24.961Z,48.17
2019-03-21T22:51:13.719Z,47.56
2019-03-21T22:54:02.499Z,46.89
2019-03-21T22:56:52.487Z,47.38
2019-03-21T22:59:21.939Z,47.84
2019-03-21T23:01:51.367Z,47.94
2019-03-21T23:04:26.652Z,47.43
2019-03-21T23:06:56.094Z,48.02
2019-03-21T23:09:25.538Z,48.29
2019-03-21T23:11:54.956Z,47.40
2019-03-21T23:14:24.453Z,47.83
2019-03-21T23:16:54.241Z,48.61
2019-03-21T23:19:23.668Z,48.60
2019-03-21T23:21:53.112Z,48.56
2019-03-21T23:24:22.554Z,48.68
2019-03-21T23:26:53.127Z,48.54
2019-03-21T23:29:22.700Z,48.47
2019-03-21T23:31:52.120Z,48.76
2019-03-21T23:34:21.572Z,47.79
2019-03-21T23:36:51.144Z,48.22
2019-03-21T23:39:20.570Z,48.77
2019-03-21T23:41:49.997Z,48.45
2019-03-21T23:44:19.437Z,49.28
2019-03-21T23:46:48.860Z,48.54
2019-03-21T23:49:18.298Z,49.05
2019-03-21T23:51:47.732Z,48.87
2019-03-21T23:54:17.181Z,48.75
2019-03-21T23:56:46.636Z,49.30
2019-03-21T23:59:16.078Z,48.47
